NATURA VA

BIENVENIDO A NATURA VA Buscando el máximo realismo



 METAR AND TAF INFORMATION
METAR FOR GCXO
GCXO 201900Z 31017KT 9999 FEW011 SCT020 16/12 Q1022 NOSIG

TAF GCXO 201400Z 2015/2115 32013KT 9999 SCT015 TX20/2114Z TN15/2106Z
TEMPO 2019/2109 BKN010
PROB30
TEMPO 2113/2115 32015G25KT

 AIRPORT MAP

 RUNWAY INFORMATION